North Platte, Nebraska
Current Conditions -  °F | °C
As of 7:53 PM on Saturday 25 Oct 2014 (Local Time) from KLBF Reporting Station
Clear Clear  
Wind Chill: 54°   Ceiling: Unl
Heat Index: 54°   Visibility: 10mi
Dew Point: 44°   Wind: 8mph
Humidity: 69%   Direction: 100°E
Pressure: 30"   Gusts: NA
Location:  41.14°N, 100.76°W
Report Text: KLBF 260053Z AUTO 10007KT 10SM CLR 12/07 A3000 RMK AO2 SLP166 T01220067
Loading
Personal Weather Stations






























Interactive Weather Map
Tropical Storm Tracking
New forecast layout! Learn more

10-Day Weather Forecast

Advertisements
Track Severe Weather on mobile